Airfield :
LOGIN :

Register | Disclaimer

   EN    FR    IT 

 










Legend :    VFR   Marginal VFR   IFR   Intensive IFR   Very Intensive IFR
Visi :
Ceiling :
>= 8 km
>= 3000ft
5 to 8 km
1000 to 3000 ft
1500m to 5 km
500 to 1000 ft
800 to 1500m
200 to 500 ft
< 800m
< 200 ft
Symbols :   Thunderstorms  Fog  Heavy snow  Heavy precipitations  Wind > 20 kt
SIGMETs :     Misc.  Thunderstorms  Icing  Turbulence  Mountain Waves  Volcanic Ashes







- Airport Elevation : 137 ft


LIPS - Istrana AFB Treviso

CURRENT METAR :
  • 301155Z 16007KT CAVOK 23/09 Q1024 RMK SCT SCT200 VIS MIN 9999 WIND THR26 14004KT WIND THR08 18004KT BLU

EXPIRED METARs :
  • 301055Z 14007KT CAVOK 23/09 Q1025 RMK SKC VIS MIN 9999 WIND THR26 13004KT WIND THR08 12005KT BLU
  • 300955Z 10007KT CAVOK 20/07 Q1026 RMK SKC VIS MIN 9999 WIND THR26 09006KT WIND THR08 09006KT BLU

TAF TAF LIPS
Valid from the 30 at 12:00 until the 30 at 21:00 UTC


301100Z 3012/3021 VRB05KT CAVOK
TEMPO 3012/3015 18012KT
No reported NOTAMs for that airfield.



MET'MAP, your aeronautical weather chart ! - Copyright ORBIFLY December 2007 - Disclaimer

ORBIFLY MET'MAP TEAM :

Programming & Development : Alexandra Zaïnal
Concept & Development : Baudouin d'Aumeries
Co-Development & Prog : Marc-Olivier Méhu
Technical & hardware support : Manuel Goepfert

Contact : metmap@orbifly.com




SOURCES & CREDITS :

   NOAA